sensor_id;sensor_type;location;lat;lon;timestamp;temperature;humidity
15991;DHT22;8100;50.994;4.538;2023-09-18T00:01:21;19.40;99.90
15991;DHT22;8100;50.994;4.538;2023-09-18T00:04:09;19.20;99.90
15991;DHT22;8100;50.994;4.538;2023-09-18T00:06:57;18.90;99.90
15991;DHT22;8100;50.994;4.538;2023-09-18T00:09:45;19.40;99.90
15991;DHT22;8100;50.994;4.538;2023-09-18T00:12:34;19.30;99.90
15991;DHT22;8100;50.994;4.538;2023-09-18T00:15:22;19.30;99.90
15991;DHT22;8100;50.994;4.538;2023-09-18T00:18:09;19.10;99.90
15991;DHT22;8100;50.994;4.538;2023-09-18T00:20:57;19.30;99.90
15991;DHT22;8100;50.994;4.538;2023-09-18T00:23:45;19.30;99.90
15991;DHT22;8100;50.994;4.538;2023-09-18T00:26:33;19.20;99.90
15991;DHT22;8100;50.994;4.538;2023-09-18T00:29:21;19.60;99.90
15991;DHT22;8100;50.994;4.538;2023-09-18T00:32:08;19.50;99.90
15991;DHT22;8100;50.994;4.538;2023-09-18T00:34:56;19.10;99.90
15991;DHT22;8100;50.994;4.538;2023-09-18T00:37:44;19.50;99.90
15991;DHT22;8100;50.994;4.538;2023-09-18T00:40:31;19.20;99.90
15991;DHT22;8100;50.994;4.538;2023-09-18T00:43:20;19.30;99.90
15991;DHT22;8100;50.994;4.538;2023-09-18T00:46:08;19.50;99.90
15991;DHT22;8100;50.994;4.538;2023-09-18T00:48:56;19.60;99.90
15991;DHT22;8100;50.994;4.538;2023-09-18T00:51:43;19.70;99.90
15991;DHT22;8100;50.994;4.538;2023-09-18T00:54:31;19.30;99.90
15991;DHT22;8100;50.994;4.538;2023-09-18T00:57:20;19.60;99.90
15991;DHT22;8100;50.994;4.538;2023-09-18T01:00:10;19.70;99.90
15991;DHT22;8100;50.994;4.538;2023-09-18T01:03:01;19.30;99.90
15991;DHT22;8100;50.994;4.538;2023-09-18T01:05:49;19.60;99.90
15991;DHT22;8100;50.994;4.538;2023-09-18T01:08:37;19.50;99.90
15991;DHT22;8100;50.994;4.538;2023-09-18T01:11:31;19.40;99.90
15991;DHT22;8100;50.994;4.538;2023-09-18T01:14:31;19.20;99.90
15991;DHT22;8100;50.994;4.538;2023-09-18T01:17:22;19.80;99.90
15991;DHT22;8100;50.994;4.538;2023-09-18T01:20:11;19.80;99.90
15991;DHT22;8100;50.994;4.538;2023-09-18T01:23:00;19.30;99.90
15991;DHT22;8100;50.994;4.538;2023-09-18T01:25:47;19.50;99.90
15991;DHT22;8100;50.994;4.538;2023-09-18T01:28:35;20.00;99.90
15991;DHT22;8100;50.994;4.538;2023-09-18T01:31:22;19.40;99.90
15991;DHT22;8100;50.994;4.538;2023-09-18T01:34:09;19.90;99.90
15991;DHT22;8100;50.994;4.538;2023-09-18T01:36:58;19.30;99.90
15991;DHT22;8100;50.994;4.538;2023-09-18T01:39:48;19.30;99.90
15991;DHT22;8100;50.994;4.538;2023-09-18T01:42:36;19.20;99.90
15991;DHT22;8100;50.994;4.538;2023-09-18T01:45:24;19.80;99.90
15991;DHT22;8100;50.994;4.538;2023-09-18T01:48:11;19.20;99.90
15991;DHT22;8100;50.994;4.538;2023-09-18T01:50:59;19.30;99.90
15991;DHT22;8100;50.994;4.538;2023-09-18T01:53:46;19.60;99.90
15991;DHT22;8100;50.994;4.538;2023-09-18T01:56:34;19.20;99.90
15991;DHT22;8100;50.994;4.538;2023-09-18T01:59:22;19.80;99.90
15991;DHT22;8100;50.994;4.538;2023-09-18T02:02:10;19.70;99.90
15991;DHT22;8100;50.994;4.538;2023-09-18T02:04:58;19.40;99.90
15991;DHT22;8100;50.994;4.538;2023-09-18T02:07:45;19.90;99.90
15991;DHT22;8100;50.994;4.538;2023-09-18T02:10:32;19.10;99.90
15991;DHT22;8100;50.994;4.538;2023-09-18T02:13:21;19.70;99.90
15991;DHT22;8100;50.994;4.538;2023-09-18T02:16:08;19.20;99.90
15991;DHT22;8100;50.994;4.538;2023-09-18T02:18:55;19.40;99.90
15991;DHT22;8100;50.994;4.538;2023-09-18T02:21:43;19.70;99.90
15991;DHT22;8100;50.994;4.538;2023-09-18T02:24:30;19.30;99.90
15991;DHT22;8100;50.994;4.538;2023-09-18T02:27:17;19.50;99.90
15991;DHT22;8100;50.994;4.538;2023-09-18T02:30:07;19.20;99.90
15991;DHT22;8100;50.994;4.538;2023-09-18T02:32:55;19.10;99.90
15991;DHT22;8100;50.994;4.538;2023-09-18T02:35:43;19.60;99.90
15991;DHT22;8100;50.994;4.538;2023-09-18T02:38:30;19.10;99.90
15991;DHT22;8100;50.994;4.538;2023-09-18T02:41:17;19.30;99.90
15991;DHT22;8100;50.994;4.538;2023-09-18T02:44:04;19.00;99.90
15991;DHT22;8100;50.994;4.538;2023-09-18T02:46:53;19.00;99.90
15991;DHT22;8100;50.994;4.538;2023-09-18T02:49:40;19.10;99.90
15991;DHT22;8100;50.994;4.538;2023-09-18T02:52:28;19.50;99.90
15991;DHT22;8100;50.994;4.538;2023-09-18T02:55:15;19.30;99.90
15991;DHT22;8100;50.994;4.538;2023-09-18T02:58:03;19.60;99.90
15991;DHT22;8100;50.994;4.538;2023-09-18T03:00:50;19.20;99.90
15991;DHT22;8100;50.994;4.538;2023-09-18T03:03:39;19.10;99.90
15991;DHT22;8100;50.994;4.538;2023-09-18T03:06:27;19.70;99.90
15991;DHT22;8100;50.994;4.538;2023-09-18T03:09:15;19.30;99.90
15991;DHT22;8100;50.994;4.538;2023-09-18T03:12:03;19.00;99.90
15991;DHT22;8100;50.994;4.538;2023-09-18T03:14:50;19.70;99.90
15991;DHT22;8100;50.994;4.538;2023-09-18T03:17:38;19.70;99.90
15991;DHT22;8100;50.994;4.538;2023-09-18T03:20:28;19.10;99.90
15991;DHT22;8100;50.994;4.538;2023-09-18T03:23:16;19.70;99.90
15991;DHT22;8100;50.994;4.538;2023-09-18T03:26:03;19.20;99.90
15991;DHT22;8100;50.994;4.538;2023-09-18T03:28:50;19.70;99.90
15991;DHT22;8100;50.994;4.538;2023-09-18T03:31:38;19.00;99.90
15991;DHT22;8100;50.994;4.538;2023-09-18T03:34:25;19.20;99.90
15991;DHT22;8100;50.994;4.538;2023-09-18T03:37:14;19.20;99.90
15991;DHT22;8100;50.994;4.538;2023-09-18T03:40:02;18.80;99.90
15991;DHT22;8100;50.994;4.538;2023-09-18T03:42:49;19.40;99.90
15991;DHT22;8100;50.994;4.538;2023-09-18T03:45:36;18.90;99.90
15991;DHT22;8100;50.994;4.538;2023-09-18T03:48:25;19.10;99.90
15991;DHT22;8100;50.994;4.538;2023-09-18T03:51:12;19.30;99.90
15991;DHT22;8100;50.994;4.538;2023-09-18T03:54:03;18.90;99.90
15991;DHT22;8100;50.994;4.538;2023-09-18T03:56:50;19.60;99.90
15991;DHT22;8100;50.994;4.538;2023-09-18T03:59:37;19.10;99.90
15991;DHT22;8100;50.994;4.538;2023-09-18T04:02:25;19.20;99.90
15991;DHT22;8100;50.994;4.538;2023-09-18T04:05:12;19.50;99.90
15991;DHT22;8100;50.994;4.538;2023-09-18T04:08:00;19.10;99.90
15991;DHT22;8100;50.994;4.538;2023-09-18T04:10:49;19.00;99.90
15991;DHT22;8100;50.994;4.538;2023-09-18T04:13:36;18.80;99.90
15991;DHT22;8100;50.994;4.538;2023-09-18T04:16:24;19.10;99.90
15991;DHT22;8100;50.994;4.538;2023-09-18T04:19:12;19.00;99.90
15991;DHT22;8100;50.994;4.538;2023-09-18T04:21:59;18.90;99.90
15991;DHT22;8100;50.994;4.538;2023-09-18T04:24:46;19.20;99.90
15991;DHT22;8100;50.994;4.538;2023-09-18T04:27:36;19.20;99.90
15991;DHT22;8100;50.994;4.538;2023-09-18T04:30:24;19.20;99.90
15991;DHT22;8100;50.994;4.538;2023-09-18T04:33:12;18.90;99.90
15991;DHT22;8100;50.994;4.538;2023-09-18T04:35:59;19.10;99.90
15991;DHT22;8100;50.994;4.538;2023-09-18T04:38:47;19.30;99.90
15991;DHT22;8100;50.994;4.538;2023-09-18T04:41:34;19.10;99.90
15991;DHT22;8100;50.994;4.538;2023-09-18T04:44:22;19.10;99.90
15991;DHT22;8100;50.994;4.538;2023-09-18T04:47:10;19.20;99.90
15991;DHT22;8100;50.994;4.538;2023-09-18T04:49:57;19.20;99.90
15991;DHT22;8100;50.994;4.538;2023-09-18T04:52:45;19.10;99.90
15991;DHT22;8100;50.994;4.538;2023-09-18T04:55:32;18.90;99.90
15991;DHT22;8100;50.994;4.538;2023-09-18T04:58:19;19.10;99.90
15991;DHT22;8100;50.994;4.538;2023-09-18T05:01:09;18.90;99.90
15991;DHT22;8100;50.994;4.538;2023-09-18T05:03:57;19.00;99.90
15991;DHT22;8100;50.994;4.538;2023-09-18T05:06:44;18.80;99.90
15991;DHT22;8100;50.994;4.538;2023-09-18T05:09:32;18.80;99.90
15991;DHT22;8100;50.994;4.538;2023-09-18T05:12:20;18.80;99.90
15991;DHT22;8100;50.994;4.538;2023-09-18T05:15:09;18.90;99.90
15991;DHT22;8100;50.994;4.538;2023-09-18T05:18:00;18.90;99.90
15991;DHT22;8100;50.994;4.538;2023-09-18T05:20:49;18.80;99.90
15991;DHT22;8100;50.994;4.538;2023-09-18T05:23:37;18.90;99.90
15991;DHT22;8100;50.994;4.538;2023-09-18T05:26:24;18.80;99.90
15991;DHT22;8100;50.994;4.538;2023-09-18T05:29:12;18.70;99.90
15991;DHT22;8100;50.994;4.538;2023-09-18T05:32:01;18.90;99.90
15991;DHT22;8100;50.994;4.538;2023-09-18T05:34:49;18.80;99.90
15991;DHT22;8100;50.994;4.538;2023-09-18T05:37:37;18.60;99.90
15991;DHT22;8100;50.994;4.538;2023-09-18T05:40:24;18.80;99.90
15991;DHT22;8100;50.994;4.538;2023-09-18T05:43:13;18.80;99.90
15991;DHT22;8100;50.994;4.538;2023-09-18T05:46:01;18.70;99.90
15991;DHT22;8100;50.994;4.538;2023-09-18T05:48:49;18.60;99.90
15991;DHT22;8100;50.994;4.538;2023-09-18T05:51:38;18.50;99.90
15991;DHT22;8100;50.994;4.538;2023-09-18T05:54:25;18.60;99.90
15991;DHT22;8100;50.994;4.538;2023-09-18T05:57:12;18.70;99.90
15991;DHT22;8100;50.994;4.538;2023-09-18T05:59:59;18.60;99.90
15991;DHT22;8100;50.994;4.538;2023-09-18T06:02:47;18.60;99.90
15991;DHT22;8100;50.994;4.538;2023-09-18T06:05:34;18.50;99.90
15991;DHT22;8100;50.994;4.538;2023-09-18T06:08:23;18.50;99.90
15991;DHT22;8100;50.994;4.538;2023-09-18T06:11:12;18.40;99.90
15991;DHT22;8100;50.994;4.538;2023-09-18T06:13:59;18.40;99.90
15991;DHT22;8100;50.994;4.538;2023-09-18T06:16:46;18.40;99.90
15991;DHT22;8100;50.994;4.538;2023-09-18T06:19:33;18.40;99.90
15991;DHT22;8100;50.994;4.538;2023-09-18T06:22:21;18.40;99.90
15991;DHT22;8100;50.994;4.538;2023-09-18T06:25:09;18.60;99.90
15991;DHT22;8100;50.994;4.538;2023-09-18T06:27:57;18.60;99.90
15991;DHT22;8100;50.994;4.538;2023-09-18T06:30:45;18.50;99.90
15991;DHT22;8100;50.994;4.538;2023-09-18T06:33:32;18.50;99.90
15991;DHT22;8100;50.994;4.538;2023-09-18T06:36:19;18.50;99.90
15991;DHT22;8100;50.994;4.538;2023-09-18T06:39:07;18.60;99.90
15991;DHT22;8100;50.994;4.538;2023-09-18T06:41:55;18.50;99.90
15991;DHT22;8100;50.994;4.538;2023-09-18T06:44:42;18.60;99.90
15991;DHT22;8100;50.994;4.538;2023-09-18T06:47:30;18.60;99.90
15991;DHT22;8100;50.994;4.538;2023-09-18T06:50:17;18.70;99.90
15991;DHT22;8100;50.994;4.538;2023-09-18T06:53:04;18.60;99.90
15991;DHT22;8100;50.994;4.538;2023-09-18T06:55:52;18.60;99.90
15991;DHT22;8100;50.994;4.538;2023-09-18T06:58:41;18.50;99.90
15991;DHT22;8100;50.994;4.538;2023-09-18T07:01:28;18.60;99.90
15991;DHT22;8100;50.994;4.538;2023-09-18T07:04:17;18.50;99.90
15991;DHT22;8100;50.994;4.538;2023-09-18T07:07:04;18.50;99.90
15991;DHT22;8100;50.994;4.538;2023-09-18T07:09:52;18.50;99.90
15991;DHT22;8100;50.994;4.538;2023-09-18T07:12:39;18.50;99.90
15991;DHT22;8100;50.994;4.538;2023-09-18T07:15:28;18.50;99.90
15991;DHT22;8100;50.994;4.538;2023-09-18T07:18:15;18.50;99.90
15991;DHT22;8100;50.994;4.538;2023-09-18T07:21:03;18.50;99.90
15991;DHT22;8100;50.994;4.538;2023-09-18T07:23:50;18.60;99.90
15991;DHT22;8100;50.994;4.538;2023-09-18T07:26:37;18.50;99.90
15991;DHT22;8100;50.994;4.538;2023-09-18T07:29:24;18.60;99.90
15991;DHT22;8100;50.994;4.538;2023-09-18T07:32:13;18.40;99.90
15991;DHT22;8100;50.994;4.538;2023-09-18T07:35:00;18.50;99.90
15991;DHT22;8100;50.994;4.538;2023-09-18T07:37:48;18.60;99.90
15991;DHT22;8100;50.994;4.538;2023-09-18T07:40:35;18.50;99.90
15991;DHT22;8100;50.994;4.538;2023-09-18T07:43:24;18.70;99.90
15991;DHT22;8100;50.994;4.538;2023-09-18T07:46:11;18.70;99.90
15991;DHT22;8100;50.994;4.538;2023-09-18T07:49:00;18.80;99.90
15991;DHT22;8100;50.994;4.538;2023-09-18T07:51:47;19.00;99.90
15991;DHT22;8100;50.994;4.538;2023-09-18T07:54:34;19.20;99.90
15991;DHT22;8100;50.994;4.538;2023-09-18T07:57:22;19.40;99.90
15991;DHT22;8100;50.994;4.538;2023-09-18T08:00:10;19.50;99.90
15991;DHT22;8100;50.994;4.538;2023-09-18T08:02:59;19.70;99.90
15991;DHT22;8100;50.994;4.538;2023-09-18T08:05:49;19.70;99.90
15991;DHT22;8100;50.994;4.538;2023-09-18T08:08:36;19.70;99.90
15991;DHT22;8100;50.994;4.538;2023-09-18T08:11:25;19.80;99.90
15991;DHT22;8100;50.994;4.538;2023-09-18T08:14:12;19.80;99.90
15991;DHT22;8100;50.994;4.538;2023-09-18T08:17:01;20.00;99.90
15991;DHT22;8100;50.994;4.538;2023-09-18T08:19:50;20.20;99.90
15991;DHT22;8100;50.994;4.538;2023-09-18T08:22:39;20.10;99.90
15991;DHT22;8100;50.994;4.538;2023-09-18T08:25:26;20.10;99.90
15991;DHT22;8100;50.994;4.538;2023-09-18T08:28:14;20.30;99.90
15991;DHT22;8100;50.994;4.538;2023-09-18T08:31:02;20.40;99.90
15991;DHT22;8100;50.994;4.538;2023-09-18T08:33:49;20.40;99.90
15991;DHT22;8100;50.994;4.538;2023-09-18T08:36:37;20.60;99.90
15991;DHT22;8100;50.994;4.538;2023-09-18T08:39:26;20.70;99.90
15991;DHT22;8100;50.994;4.538;2023-09-18T08:42:14;20.60;99.90
15991;DHT22;8100;50.994;4.538;2023-09-18T08:45:05;20.80;99.90
15991;DHT22;8100;50.994;4.538;2023-09-18T08:47:55;20.80;99.90
15991;DHT22;8100;50.994;4.538;2023-09-18T08:50:43;20.70;99.90
15991;DHT22;8100;50.994;4.538;2023-09-18T08:53:33;20.60;99.90
15991;DHT22;8100;50.994;4.538;2023-09-18T08:56:22;20.30;99.90
15991;DHT22;8100;50.994;4.538;2023-09-18T08:59:11;20.20;99.90
15991;DHT22;8100;50.994;4.538;2023-09-18T09:01:59;20.40;99.90
15991;DHT22;8100;50.994;4.538;2023-09-18T09:04:46;20.40;99.90
15991;DHT22;8100;50.994;4.538;2023-09-18T09:07:34;20.50;99.90
15991;DHT22;8100;50.994;4.538;2023-09-18T09:10:21;20.50;99.90
15991;DHT22;8100;50.994;4.538;2023-09-18T09:13:10;20.50;99.90
15991;DHT22;8100;50.994;4.538;2023-09-18T09:15:58;20.70;99.90
15991;DHT22;8100;50.994;4.538;2023-09-18T09:18:49;20.70;99.90
15991;DHT22;8100;50.994;4.538;2023-09-18T09:21:40;20.60;99.90
15991;DHT22;8100;50.994;4.538;2023-09-18T09:24:40;20.60;99.90
15991;DHT22;8100;50.994;4.538;2023-09-18T09:27:27;20.50;99.90
15991;DHT22;8100;50.994;4.538;2023-09-18T09:30:20;20.60;99.90
15991;DHT22;8100;50.994;4.538;2023-09-18T09:33:11;20.60;99.90
15991;DHT22;8100;50.994;4.538;2023-09-18T09:35:59;20.60;99.80
15991;DHT22;8100;50.994;4.538;2023-09-18T09:38:46;20.50;99.90
15991;DHT22;8100;50.994;4.538;2023-09-18T09:41:34;20.30;99.90
15991;DHT22;8100;50.994;4.538;2023-09-18T09:44:21;20.40;99.90
15991;DHT22;8100;50.994;4.538;2023-09-18T09:47:10;20.30;99.90
15991;DHT22;8100;50.994;4.538;2023-09-18T09:49:58;20.20;99.90
15991;DHT22;8100;50.994;4.538;2023-09-18T09:52:47;20.20;99.90
15991;DHT22;8100;50.994;4.538;2023-09-18T09:55:35;20.20;99.90
15991;DHT22;8100;50.994;4.538;2023-09-18T09:58:27;20.10;99.90
15991;DHT22;8100;50.994;4.538;2023-09-18T10:01:17;20.20;99.90
15991;DHT22;8100;50.994;4.538;2023-09-18T10:04:09;20.10;99.90
15991;DHT22;8100;50.994;4.538;2023-09-18T10:07:05;20.10;99.90
15991;DHT22;8100;50.994;4.538;2023-09-18T10:09:54;20.20;99.90
15991;DHT22;8100;50.994;4.538;2023-09-18T10:12:42;20.20;99.90
15991;DHT22;8100;50.994;4.538;2023-09-18T10:15:34;20.30;99.90
15991;DHT22;8100;50.994;4.538;2023-09-18T10:18:27;20.30;99.90
15991;DHT22;8100;50.994;4.538;2023-09-18T10:21:20;20.30;99.90
15991;DHT22;8100;50.994;4.538;2023-09-18T10:24:21;20.40;99.90
15991;DHT22;8100;50.994;4.538;2023-09-18T10:27:12;20.40;99.90
15991;DHT22;8100;50.994;4.538;2023-09-18T10:30:00;20.40;63.40
15991;DHT22;8100;50.994;4.538;2023-09-18T10:32:51;20.60;92.20
15991;DHT22;8100;50.994;4.538;2023-09-18T10:35:41;20.70;33.00
15991;DHT22;8100;50.994;4.538;2023-09-18T10:38:31;20.70;1.50
15991;DHT22;8100;50.994;4.538;2023-09-18T10:41:20;20.70;1.00
15991;DHT22;8100;50.994;4.538;2023-09-18T10:44:07;20.70;11.10
15991;DHT22;8100;50.994;4.538;2023-09-18T10:46:55;20.80;1.00
15991;DHT22;8100;50.994;4.538;2023-09-18T10:49:43;20.60;1.00
15991;DHT22;8100;50.994;4.538;2023-09-18T10:52:31;20.70;26.20
15991;DHT22;8100;50.994;4.538;2023-09-18T10:55:21;20.70;2.00
15991;DHT22;8100;50.994;4.538;2023-09-18T10:58:12;20.70;1.70
15991;DHT22;8100;50.994;4.538;2023-09-18T11:01:11;20.60;1.00
15991;DHT22;8100;50.994;4.538;2023-09-18T11:04:01;20.80;1.00
15991;DHT22;8100;50.994;4.538;2023-09-18T11:07:02;20.90;1.00
15991;DHT22;8100;50.994;4.538;2023-09-18T11:09:50;21.30;1.00
15991;DHT22;8100;50.994;4.538;2023-09-18T11:12:45;21.50;1.00
15991;DHT22;8100;50.994;4.538;2023-09-18T11:15:34;21.10;1.00
15991;DHT22;8100;50.994;4.538;2023-09-18T11:18:21;21.10;1.00
15991;DHT22;8100;50.994;4.538;2023-09-18T11:21:09;21.20;1.00
15991;DHT22;8100;50.994;4.538;2023-09-18T11:24:01;21.30;1.00
15991;DHT22;8100;50.994;4.538;2023-09-18T11:26:50;21.30;1.00
15991;DHT22;8100;50.994;4.538;2023-09-18T11:29:39;21.40;1.00
15991;DHT22;8100;50.994;4.538;2023-09-18T11:32:39;21.50;1.00
15991;DHT22;8100;50.994;4.538;2023-09-18T11:35:26;21.80;1.00
15991;DHT22;8100;50.994;4.538;2023-09-18T11:38:15;21.90;1.00
15991;DHT22;8100;50.994;4.538;2023-09-18T11:41:22;21.80;1.00
15991;DHT22;8100;50.994;4.538;2023-09-18T11:44:32;21.70;99.90
15991;DHT22;8100;50.994;4.538;2023-09-18T11:47:25;21.50;1.00
15991;DHT22;8100;50.994;4.538;2023-09-18T11:50:13;21.30;1.00
15991;DHT22;8100;50.994;4.538;2023-09-18T11:53:03;21.20;1.00
15991;DHT22;8100;50.994;4.538;2023-09-18T11:55:50;21.30;1.00
15991;DHT22;8100;50.994;4.538;2023-09-18T11:58:45;21.30;1.00
15991;DHT22;8100;50.994;4.538;2023-09-18T12:01:33;21.50;1.00
15991;DHT22;8100;50.994;4.538;2023-09-18T12:04:28;21.90;43.00
15991;DHT22;8100;50.994;4.538;2023-09-18T12:07:17;21.90;99.90
15991;DHT22;8100;50.994;4.538;2023-09-18T12:10:06;22.00;22.20
15991;DHT22;8100;50.994;4.538;2023-09-18T12:12:55;22.20;99.90
15991;DHT22;8100;50.994;4.538;2023-09-18T12:15:42;22.40;1.00
15991;DHT22;8100;50.994;4.538;2023-09-18T12:18:30;22.50;1.00
15991;DHT22;8100;50.994;4.538;2023-09-18T12:21:19;22.50;1.00
15991;DHT22;8100;50.994;4.538;2023-09-18T12:24:09;22.40;1.00
15991;DHT22;8100;50.994;4.538;2023-09-18T12:27:00;22.60;1.00
15991;DHT22;8100;50.994;4.538;2023-09-18T12:29:47;22.60;1.00
15991;DHT22;8100;50.994;4.538;2023-09-18T12:32:36;22.70;1.00
15991;DHT22;8100;50.994;4.538;2023-09-18T12:35:24;22.70;1.00
15991;DHT22;8100;50.994;4.538;2023-09-18T12:38:18;22.90;1.00
15991;DHT22;8100;50.994;4.538;2023-09-18T12:41:11;22.70;1.00
15991;DHT22;8100;50.994;4.538;2023-09-18T12:43:59;22.70;1.00
15991;DHT22;8100;50.994;4.538;2023-09-18T12:46:49;22.80;1.00
15991;DHT22;8100;50.994;4.538;2023-09-18T12:49:38;22.90;99.90
15991;DHT22;8100;50.994;4.538;2023-09-18T12:52:25;22.90;99.90
15991;DHT22;8100;50.994;4.538;2023-09-18T12:55:23;23.20;99.90
15991;DHT22;8100;50.994;4.538;2023-09-18T12:58:12;23.10;99.90
15991;DHT22;8100;50.994;4.538;2023-09-18T13:01:04;23.00;99.90
15991;DHT22;8100;50.994;4.538;2023-09-18T13:03:54;23.00;99.90
15991;DHT22;8100;50.994;4.538;2023-09-18T13:06:42;23.00;99.90
15991;DHT22;8100;50.994;4.538;2023-09-18T13:09:30;23.00;99.90
15991;DHT22;8100;50.994;4.538;2023-09-18T13:12:19;22.80;99.90
15991;DHT22;8100;50.994;4.538;2023-09-18T13:15:07;22.90;99.90
15991;DHT22;8100;50.994;4.538;2023-09-18T13:18:00;23.10;99.90
15991;DHT22;8100;50.994;4.538;2023-09-18T13:20:50;23.40;99.90
15991;DHT22;8100;50.994;4.538;2023-09-18T13:23:38;23.40;99.90
15991;DHT22;8100;50.994;4.538;2023-09-18T13:26:25;23.30;99.90
15991;DHT22;8100;50.994;4.538;2023-09-18T13:29:14;23.70;99.90
15991;DHT22;8100;50.994;4.538;2023-09-18T13:32:01;23.80;99.90
15991;DHT22;8100;50.994;4.538;2023-09-18T13:34:50;23.70;99.90
15991;DHT22;8100;50.994;4.538;2023-09-18T13:37:38;23.80;67.50
15991;DHT22;8100;50.994;4.538;2023-09-18T13:40:25;23.70;1.00
15991;DHT22;8100;50.994;4.538;2023-09-18T13:43:14;23.50;1.00
15991;DHT22;8100;50.994;4.538;2023-09-18T13:46:03;23.50;1.00
15991;DHT22;8100;50.994;4.538;2023-09-18T13:48:51;23.80;1.00
15991;DHT22;8100;50.994;4.538;2023-09-18T13:51:38;24.10;1.00
15991;DHT22;8100;50.994;4.538;2023-09-18T13:54:26;24.10;1.00
15991;DHT22;8100;50.994;4.538;2023-09-18T13:57:13;24.00;1.00
15991;DHT22;8100;50.994;4.538;2023-09-18T14:00:01;24.30;1.00
15991;DHT22;8100;50.994;4.538;2023-09-18T14:02:52;24.30;1.00
15991;DHT22;8100;50.994;4.538;2023-09-18T14:05:39;23.80;1.00
15991;DHT22;8100;50.994;4.538;2023-09-18T14:08:27;23.50;1.00
15991;DHT22;8100;50.994;4.538;2023-09-18T14:11:14;23.20;1.00
15991;DHT22;8100;50.994;4.538;2023-09-18T14:14:01;23.10;1.00
15991;DHT22;8100;50.994;4.538;2023-09-18T14:16:49;23.00;1.00
15991;DHT22;8100;50.994;4.538;2023-09-18T14:19:38;23.10;1.00
15991;DHT22;8100;50.994;4.538;2023-09-18T14:22:26;23.00;1.00
15991;DHT22;8100;50.994;4.538;2023-09-18T14:25:13;22.90;1.00
15991;DHT22;8100;50.994;4.538;2023-09-18T14:28:01;22.90;1.00
15991;DHT22;8100;50.994;4.538;2023-09-18T14:30:49;22.90;1.00
15991;DHT22;8100;50.994;4.538;2023-09-18T14:33:36;22.80;1.00
15991;DHT22;8100;50.994;4.538;2023-09-18T14:36:25;22.70;1.00
15991;DHT22;8100;50.994;4.538;2023-09-18T14:39:12;22.70;1.00
15991;DHT22;8100;50.994;4.538;2023-09-18T14:41:59;22.60;1.00
15991;DHT22;8100;50.994;4.538;2023-09-18T14:44:47;22.50;1.00
15991;DHT22;8100;50.994;4.538;2023-09-18T14:47:34;22.40;1.00
15991;DHT22;8100;50.994;4.538;2023-09-18T14:50:21;20.50;1.00
15991;DHT22;8100;50.994;4.538;2023-09-18T14:53:10;17.50;99.90
15991;DHT22;8100;50.994;4.538;2023-09-18T14:55:59;16.90;99.90
15991;DHT22;8100;50.994;4.538;2023-09-18T14:58:47;17.90;99.90
15991;DHT22;8100;50.994;4.538;2023-09-18T15:01:34;19.50;99.90
15991;DHT22;8100;50.994;4.538;2023-09-18T15:04:21;19.30;99.90
15991;DHT22;8100;50.994;4.538;2023-09-18T15:07:09;17.50;99.90
15991;DHT22;8100;50.994;4.538;2023-09-18T15:09:58;16.10;99.90
15991;DHT22;8100;50.994;4.538;2023-09-18T15:12:46;17.30;99.90
15991;DHT22;8100;50.994;4.538;2023-09-18T15:15:33;16.40;99.90
15991;DHT22;8100;50.994;4.538;2023-09-18T15:18:21;19.20;99.90
15991;DHT22;8100;50.994;4.538;2023-09-18T15:21:09;19.30;99.90
15991;DHT22;8100;50.994;4.538;2023-09-18T15:23:56;18.90;99.90
15991;DHT22;8100;50.994;4.538;2023-09-18T15:26:45;18.80;99.90
15991;DHT22;8100;50.994;4.538;2023-09-18T15:29:34;19.70;99.90
15991;DHT22;8100;50.994;4.538;2023-09-18T15:32:21;20.30;99.90
15991;DHT22;8100;50.994;4.538;2023-09-18T15:35:08;21.30;99.90
15991;DHT22;8100;50.994;4.538;2023-09-18T15:37:56;22.50;99.90
15991;DHT22;8100;50.994;4.538;2023-09-18T15:40:43;22.20;1.00
15991;DHT22;8100;50.994;4.538;2023-09-18T15:43:32;21.30;22.40
15991;DHT22;8100;50.994;4.538;2023-09-18T15:46:19;20.50;99.90
15991;DHT22;8100;50.994;4.538;2023-09-18T15:49:06;19.80;99.90
15991;DHT22;8100;50.994;4.538;2023-09-18T15:51:54;19.50;99.90
15991;DHT22;8100;50.994;4.538;2023-09-18T15:54:41;19.30;99.90
15991;DHT22;8100;50.994;4.538;2023-09-18T15:57:30;19.20;99.90
15991;DHT22;8100;50.994;4.538;2023-09-18T16:00:20;19.20;99.90
15991;DHT22;8100;50.994;4.538;2023-09-18T16:03:07;19.90;99.90
15991;DHT22;8100;50.994;4.538;2023-09-18T16:05:55;21.40;1.00
15991;DHT22;8100;50.994;4.538;2023-09-18T16:08:42;22.30;1.00
15991;DHT22;8100;50.994;4.538;2023-09-18T16:11:29;23.10;1.00
15991;DHT22;8100;50.994;4.538;2023-09-18T16:14:17;23.40;1.00
15991;DHT22;8100;50.994;4.538;2023-09-18T16:17:07;23.00;1.00
15991;DHT22;8100;50.994;4.538;2023-09-18T16:19:55;21.50;1.00
15991;DHT22;8100;50.994;4.538;2023-09-18T16:22:43;20.50;1.00
15991;DHT22;8100;50.994;4.538;2023-09-18T16:25:32;20.10;21.80
15991;DHT22;8100;50.994;4.538;2023-09-18T16:28:22;19.80;99.90
15991;DHT22;8100;50.994;4.538;2023-09-18T16:31:09;19.70;52.60
15991;DHT22;8100;50.994;4.538;2023-09-18T16:33:58;19.60;91.90
15991;DHT22;8100;50.994;4.538;2023-09-18T16:36:48;19.70;79.70
15991;DHT22;8100;50.994;4.538;2023-09-18T16:39:36;19.60;93.20
15991;DHT22;8100;50.994;4.538;2023-09-18T16:42:23;19.50;96.20
15991;DHT22;8100;50.994;4.538;2023-09-18T16:45:12;19.50;49.10
15991;DHT22;8100;50.994;4.538;2023-09-18T16:47:59;19.60;51.80
15991;DHT22;8100;50.994;4.538;2023-09-18T16:50:48;19.50;67.60
15991;DHT22;8100;50.994;4.538;2023-09-18T16:53:35;19.50;5.30
15991;DHT22;8100;50.994;4.538;2023-09-18T16:56:22;19.50;22.20
15991;DHT22;8100;50.994;4.538;2023-09-18T16:59:10;19.40;1.00
15991;DHT22;8100;50.994;4.538;2023-09-18T17:01:58;19.50;1.00
15991;DHT22;8100;50.994;4.538;2023-09-18T17:04:47;19.50;1.00
15991;DHT22;8100;50.994;4.538;2023-09-18T17:07:37;19.40;1.00
15991;DHT22;8100;50.994;4.538;2023-09-18T17:10:24;19.30;1.00
15991;DHT22;8100;50.994;4.538;2023-09-18T17:13:12;19.30;1.00
15991;DHT22;8100;50.994;4.538;2023-09-18T17:16:00;19.20;1.00
15991;DHT22;8100;50.994;4.538;2023-09-18T17:18:47;19.10;1.00
15991;DHT22;8100;50.994;4.538;2023-09-18T17:21:37;19.00;1.00
15991;DHT22;8100;50.994;4.538;2023-09-18T17:24:26;19.00;1.00
15991;DHT22;8100;50.994;4.538;2023-09-18T17:27:13;19.00;1.00
15991;DHT22;8100;50.994;4.538;2023-09-18T17:30:00;19.00;1.00
15991;DHT22;8100;50.994;4.538;2023-09-18T17:32:50;18.90;1.00
15991;DHT22;8100;50.994;4.538;2023-09-18T17:35:37;18.90;1.00
15991;DHT22;8100;50.994;4.538;2023-09-18T17:38:25;18.80;1.00
15991;DHT22;8100;50.994;4.538;2023-09-18T17:41:13;18.70;1.00
15991;DHT22;8100;50.994;4.538;2023-09-18T17:44:01;18.60;1.00
15991;DHT22;8100;50.994;4.538;2023-09-18T17:46:49;18.60;1.00
15991;DHT22;8100;50.994;4.538;2023-09-18T17:49:36;18.50;1.00
15991;DHT22;8100;50.994;4.538;2023-09-18T17:52:23;18.50;1.00
15991;DHT22;8100;50.994;4.538;2023-09-18T17:55:11;18.40;1.00
15991;DHT22;8100;50.994;4.538;2023-09-18T17:58:00;18.30;1.00
15991;DHT22;8100;50.994;4.538;2023-09-18T18:00:48;18.20;1.00
15991;DHT22;8100;50.994;4.538;2023-09-18T18:03:37;18.10;1.00
15991;DHT22;8100;50.994;4.538;2023-09-18T18:06:25;18.10;1.00